createdAt,value
2022-11-12T00:00:45.454Z,7
2022-11-12T00:01:45.487Z,7
2022-11-12T00:03:45.446Z,7
2022-11-12T00:04:45.457Z,6
2022-11-12T00:05:45.451Z,7
2022-11-12T00:07:45.484Z,7
2022-11-12T00:09:45.470Z,6
2022-11-12T00:10:45.456Z,6
2022-11-12T00:11:45.452Z,7
2022-11-12T00:12:45.446Z,6
2022-11-12T00:13:45.483Z,5
2022-11-12T00:14:45.495Z,7
2022-11-12T00:15:45.457Z,7
2022-11-12T00:16:45.452Z,7
2022-11-12T00:17:45.446Z,7
2022-11-12T00:18:45.453Z,6
2022-11-12T00:19:45.507Z,7
2022-11-12T00:20:45.450Z,7
2022-11-12T00:21:45.449Z,7
2022-11-12T00:22:45.454Z,6
2022-11-12T00:23:45.456Z,7
2022-11-12T00:24:45.451Z,6
2022-11-12T00:25:45.449Z,8
2022-11-12T00:26:45.455Z,7
2022-11-12T00:27:45.463Z,7
2022-11-12T00:28:45.456Z,6
2022-11-12T00:29:45.450Z,6
2022-11-12T00:30:45.449Z,7
2022-11-12T00:31:45.454Z,7
2022-11-12T00:32:45.455Z,7
2022-11-12T00:33:45.451Z,7
2022-11-12T00:34:45.457Z,6
2022-11-12T00:35:45.453Z,6
2022-11-12T00:36:45.453Z,5
2022-11-12T00:37:45.576Z,6
2022-11-12T00:39:45.446Z,7
2022-11-12T00:41:45.450Z,8
2022-11-12T00:42:45.446Z,6
2022-11-12T00:43:45.451Z,7
2022-11-12T00:44:45.453Z,6
2022-11-12T00:46:45.450Z,7
2022-11-12T00:47:45.458Z,6
2022-11-12T00:48:45.455Z,7
2022-11-12T00:49:45.458Z,5
2022-11-12T00:50:45.451Z,6
2022-11-12T00:51:45.483Z,7
2022-11-12T00:52:45.447Z,7
2022-11-12T00:53:45.465Z,6
2022-11-12T00:54:45.451Z,6
2022-11-12T00:55:45.843Z,6
2022-11-12T00:56:45.457Z,5
2022-11-12T00:57:45.461Z,7
2022-11-12T00:58:45.459Z,6
2022-11-12T00:59:45.449Z,6
2022-11-12T01:00:45.712Z,6
2022-11-12T01:02:50.725Z,7
2022-11-12T01:03:45.524Z,7
2022-11-12T01:04:45.446Z,5
2022-11-12T01:05:45.453Z,8
2022-11-12T01:06:45.504Z,7
2022-11-12T01:07:45.449Z,6
2022-11-12T01:08:45.575Z,5
2022-11-12T01:09:45.452Z,7
2022-11-12T01:10:45.451Z,7
2022-11-12T01:11:45.455Z,6
2022-11-12T01:12:45.446Z,5
2022-11-12T01:13:45.451Z,5
2022-11-12T01:14:45.454Z,7
2022-11-12T01:15:45.450Z,6
2022-11-12T01:16:45.461Z,5
2022-11-12T01:17:45.466Z,6
2022-11-12T01:18:45.457Z,6
2022-11-12T01:19:45.451Z,8
2022-11-12T01:21:45.455Z,6
2022-11-12T01:23:45.459Z,5
2022-11-12T01:25:45.457Z,6
2022-11-12T01:26:45.523Z,6
2022-11-12T01:27:45.462Z,6
2022-11-12T01:28:45.467Z,7
2022-11-12T01:29:45.451Z,7
2022-11-12T01:30:45.454Z,7
2022-11-12T01:31:45.459Z,7
2022-11-12T01:32:45.456Z,7
2022-11-12T01:33:45.450Z,6
2022-11-12T01:34:45.460Z,7
2022-11-12T01:35:45.456Z,6
2022-11-12T01:36:45.457Z,7
2022-11-12T01:37:45.456Z,7
2022-11-12T01:38:45.454Z,6
2022-11-12T01:39:45.576Z,7
2022-11-12T01:40:45.448Z,6
2022-11-12T01:41:45.459Z,6
2022-11-12T01:42:45.462Z,6
2022-11-12T01:43:45.462Z,6
2022-11-12T01:44:45.452Z,7
2022-11-12T01:45:45.457Z,7
2022-11-12T01:46:45.451Z,6
2022-11-12T01:47:45.454Z,7
2022-11-12T01:48:45.453Z,5
2022-11-12T01:49:51.770Z,6
2022-11-12T01:50:45.461Z,6
2022-11-12T01:51:45.450Z,7
2022-11-12T01:52:45.449Z,6
2022-11-12T01:53:45.495Z,6
2022-11-12T01:55:45.444Z,6
2022-11-12T01:56:45.448Z,7
2022-11-12T01:57:45.463Z,7
2022-11-12T01:58:45.454Z,6
2022-11-12T02:00:45.479Z,6
2022-11-12T02:01:45.456Z,7
2022-11-12T02:02:45.471Z,6
2022-11-12T02:03:45.544Z,6
2022-11-12T02:05:45.452Z,5
2022-11-12T02:07:45.453Z,6
2022-11-12T02:08:45.452Z,5
2022-11-12T02:09:45.455Z,7
2022-11-12T02:10:45.569Z,6
2022-11-12T02:11:45.446Z,6
2022-11-12T02:12:45.459Z,4
2022-11-12T02:13:45.453Z,7
2022-11-12T02:14:45.448Z,6
2022-11-12T02:15:45.451Z,6
2022-11-12T02:16:45.460Z,6
2022-11-12T02:17:45.459Z,6
2022-11-12T02:18:45.457Z,5
2022-11-12T02:19:45.459Z,6
2022-11-12T02:20:45.445Z,5
2022-11-12T02:21:45.460Z,7
2022-11-12T02:22:45.453Z,8
2022-11-12T02:23:45.450Z,6
2022-11-12T02:24:45.454Z,6
2022-11-12T02:26:45.462Z,5
2022-11-12T02:27:45.472Z,6
2022-11-12T02:28:45.455Z,6
2022-11-12T02:29:45.455Z,6
2022-11-12T02:30:45.474Z,6
2022-11-12T02:31:45.457Z,5
2022-11-12T02:32:45.454Z,8
2022-11-12T02:33:45.448Z,5
2022-11-12T02:34:45.457Z,6
2022-11-12T02:35:45.458Z,7
2022-11-12T02:36:45.455Z,5
2022-11-12T02:37:45.451Z,7
2022-11-12T02:38:45.458Z,5
2022-11-12T02:39:45.447Z,6
2022-11-12T02:40:45.461Z,6
2022-11-12T02:42:45.455Z,7
2022-11-12T02:43:45.453Z,5
2022-11-12T02:44:45.454Z,6
2022-11-12T02:46:45.452Z,6
2022-11-12T02:47:45.450Z,6
2022-11-12T02:48:45.447Z,7
2022-11-12T02:49:45.456Z,5
2022-11-12T02:50:45.444Z,5
2022-11-12T02:51:45.450Z,7
2022-11-12T02:52:45.444Z,6
2022-11-12T02:53:45.454Z,6
2022-11-12T02:54:45.450Z,6
2022-11-12T02:55:45.506Z,6
2022-11-12T02:56:45.448Z,6
2022-11-12T02:58:45.445Z,6
2022-11-12T02:59:45.452Z,6
2022-11-12T03:00:45.517Z,6
2022-11-12T03:01:45.462Z,6
2022-11-12T03:02:45.453Z,7
2022-11-12T03:03:45.457Z,7
2022-11-12T03:04:49.309Z,5
2022-11-12T03:05:45.455Z,7
2022-11-12T03:06:45.507Z,7
2022-11-12T03:07:45.456Z,6
2022-11-12T03:08:45.454Z,6
2022-11-12T03:09:45.454Z,5
2022-11-12T03:10:45.457Z,6
2022-11-12T03:11:45.455Z,7
2022-11-12T03:12:45.576Z,5
2022-11-12T03:13:45.757Z,7
2022-11-12T03:14:45.452Z,6
2022-11-12T03:15:45.449Z,5
2022-11-12T03:16:45.493Z,7
2022-11-12T03:17:45.455Z,6
2022-11-12T03:18:45.450Z,5
2022-11-12T03:19:45.450Z,5
2022-11-12T03:21:45.456Z,6
2022-11-12T03:23:45.446Z,7
2022-11-12T03:26:45.457Z,6
2022-11-12T03:27:45.447Z,5
2022-11-12T03:28:45.455Z,6
2022-11-12T03:29:45.453Z,5
2022-11-12T03:30:45.452Z,6
2022-11-12T03:31:45.446Z,6
2022-11-12T03:32:45.453Z,5
2022-11-12T03:33:45.448Z,7
2022-11-12T03:34:45.451Z,6
2022-11-12T03:35:45.451Z,6
2022-11-12T03:36:45.456Z,5
2022-11-12T03:37:45.449Z,5
2022-11-12T03:38:45.458Z,5
2022-11-12T03:39:45.459Z,6
2022-11-12T03:40:45.453Z,7
2022-11-12T03:41:45.455Z,6
2022-11-12T03:42:45.453Z,5
2022-11-12T03:43:45.566Z,5
2022-11-12T03:44:45.580Z,5
2022-11-12T03:45:45.458Z,6
2022-11-12T03:46:45.447Z,6
2022-11-12T03:47:45.455Z,6
2022-11-12T03:48:45.452Z,5
2022-11-12T03:49:45.455Z,6
2022-11-12T03:50:45.847Z,7
2022-11-12T03:51:45.451Z,6
2022-11-12T03:52:45.448Z,6
2022-11-12T03:53:45.457Z,5
2022-11-12T03:54:45.450Z,6
2022-11-12T03:55:45.455Z,6
2022-11-12T03:56:45.451Z,6
2022-11-12T03:57:45.452Z,5
2022-11-12T03:58:45.444Z,4
2022-11-12T04:00:45.482Z,6
2022-11-12T04:01:45.451Z,4
2022-11-12T04:02:45.445Z,4
2022-11-12T04:03:45.450Z,6
2022-11-12T04:04:45.453Z,5
2022-11-12T04:05:45.452Z,6
2022-11-12T04:07:45.456Z,7
2022-11-12T04:08:45.447Z,6
2022-11-12T04:09:45.452Z,6
2022-11-12T04:14:45.581Z,6
2022-11-12T04:15:45.444Z,4
2022-11-12T04:16:45.451Z,5
2022-11-12T04:17:45.454Z,6
2022-11-12T04:18:45.451Z,5
2022-11-12T04:19:45.452Z,5
2022-11-12T04:20:45.455Z,5
2022-11-12T04:21:45.447Z,5
2022-11-12T04:22:45.447Z,5
2022-11-12T04:23:45.455Z,5
2022-11-12T04:24:45.467Z,6
2022-11-12T04:26:46.812Z,5
2022-11-12T04:27:45.452Z,6
2022-11-12T04:28:45.515Z,6
2022-11-12T04:29:45.457Z,5
2022-11-12T04:30:45.445Z,4
2022-11-12T04:32:45.450Z,5
2022-11-12T04:33:45.450Z,6
2022-11-12T04:34:45.507Z,5
2022-11-12T04:35:45.454Z,4
2022-11-12T04:36:45.443Z,5
2022-11-12T04:37:45.488Z,4
2022-11-12T04:38:45.458Z,4
2022-11-12T04:39:45.449Z,5
2022-11-12T04:40:45.457Z,5
2022-11-12T04:41:45.458Z,5
2022-11-12T04:42:45.452Z,4
2022-11-12T04:43:45.458Z,4
2022-11-12T04:44:45.462Z,5
2022-11-12T04:46:45.446Z,6
2022-11-12T04:47:45.450Z,5
2022-11-12T04:48:45.453Z,5
2022-11-12T04:49:45.463Z,5
2022-11-12T04:51:45.448Z,5
2022-11-12T04:52:45.451Z,6
2022-11-12T04:53:45.447Z,5
2022-11-12T04:54:45.449Z,5
2022-11-12T04:55:45.484Z,5
2022-11-12T04:56:45.443Z,4
2022-11-12T04:57:45.461Z,5
2022-11-12T04:58:45.461Z,6
2022-11-12T04:59:45.450Z,5
2022-11-12T05:00:45.455Z,5
2022-11-12T05:01:45.547Z,5
2022-11-12T05:02:45.449Z,5
2022-11-12T05:03:45.453Z,4
2022-11-12T05:04:45.468Z,5
2022-11-12T05:06:45.486Z,5
2022-11-12T05:07:45.456Z,4
2022-11-12T05:08:45.458Z,5
2022-11-12T05:09:45.448Z,4
2022-11-12T05:10:45.456Z,6
2022-11-12T05:11:45.451Z,4
2022-11-12T05:12:45.454Z,5
2022-11-12T05:13:45.468Z,5
2022-11-12T05:14:45.453Z,4
2022-11-12T05:15:45.451Z,4
2022-11-12T05:16:45.567Z,4
2022-11-12T05:17:45.467Z,5
2022-11-12T05:19:45.458Z,4
2022-11-12T05:20:45.452Z,5
2022-11-12T05:21:45.448Z,4
2022-11-12T05:22:59.016Z,4
2022-11-12T05:23:45.450Z,5
2022-11-12T05:24:45.444Z,5
2022-11-12T05:25:45.443Z,5
2022-11-12T05:26:45.444Z,4
2022-11-12T05:27:45.455Z,5
2022-11-12T05:28:45.452Z,5
2022-11-12T05:29:45.461Z,5
2022-11-12T05:30:45.459Z,6
2022-11-12T05:31:45.447Z,5
2022-11-12T05:32:45.452Z,4
2022-11-12T05:33:45.446Z,3
2022-11-12T05:34:45.443Z,5
2022-11-12T05:35:45.830Z,4
2022-11-12T05:36:45.445Z,4
2022-11-12T05:37:45.444Z,5
2022-11-12T05:38:45.449Z,5
2022-11-12T05:39:45.445Z,5
2022-11-12T05:40:45.447Z,4
2022-11-12T05:42:11.232Z,5
2022-11-12T05:42:45.443Z,6
2022-11-12T05:43:45.459Z,5
2022-11-12T05:44:45.450Z,5
2022-11-12T05:45:45.453Z,4
2022-11-12T05:46:45.452Z,5
2022-11-12T05:47:45.608Z,6
2022-11-12T05:48:45.455Z,5
2022-11-12T05:49:45.448Z,5
2022-11-12T05:51:45.451Z,4
2022-11-12T05:52:45.451Z,5
2022-11-12T05:53:45.456Z,5
2022-11-12T05:54:45.449Z,5
2022-11-12T05:55:45.446Z,5
2022-11-12T05:56:45.451Z,6
2022-11-12T05:57:45.444Z,5
2022-11-12T05:58:45.453Z,5
2022-11-12T06:00:45.450Z,5
2022-11-12T06:01:45.443Z,5
2022-11-12T06:02:45.489Z,4
2022-11-12T06:03:45.454Z,5
2022-11-12T06:04:45.443Z,5
2022-11-12T06:05:45.453Z,4
2022-11-12T06:07:45.449Z,4
2022-11-12T06:08:45.451Z,5
2022-11-12T06:09:45.454Z,4
2022-11-12T06:10:45.479Z,5
2022-11-12T06:11:45.449Z,6
2022-11-12T06:12:45.451Z,5
2022-11-12T06:13:45.446Z,4
2022-11-12T06:14:45.464Z,4
2022-11-12T06:15:45.457Z,4
2022-11-12T06:16:45.446Z,6
2022-11-12T06:17:45.448Z,4
2022-11-12T06:18:45.572Z,4
2022-11-12T06:19:45.446Z,5
2022-11-12T06:20:45.444Z,5
2022-11-12T06:21:45.450Z,4
2022-11-12T06:22:45.446Z,5
2022-11-12T06:23:45.443Z,5
2022-11-12T06:24:45.443Z,3
2022-11-12T06:25:45.448Z,5
2022-11-12T06:26:45.445Z,5
2022-11-12T06:27:45.522Z,6
2022-11-12T06:28:45.473Z,4
2022-11-12T06:29:45.449Z,5
2022-11-12T06:30:45.448Z,5
2022-11-12T06:31:45.442Z,4
2022-11-12T06:32:45.479Z,6
2022-11-12T06:33:45.447Z,5
2022-11-12T06:34:45.444Z,4
2022-11-12T06:35:45.447Z,5
2022-11-12T06:36:45.449Z,5
2022-11-12T06:37:45.449Z,4
2022-11-12T06:39:45.443Z,5
2022-11-12T06:40:45.444Z,5
2022-11-12T06:41:45.469Z,5
2022-11-12T06:42:45.452Z,5
2022-11-12T06:43:45.446Z,4
2022-11-12T06:44:45.446Z,5
2022-11-12T06:47:45.452Z,5
2022-11-12T06:48:45.452Z,5
2022-11-12T06:49:45.572Z,5
2022-11-12T06:50:45.451Z,4
2022-11-12T06:51:45.467Z,5
2022-11-12T06:52:45.459Z,4
2022-11-12T06:53:45.452Z,4
2022-11-12T06:54:45.446Z,6
2022-11-12T06:55:45.452Z,5
2022-11-12T06:56:45.449Z,4
2022-11-12T06:57:45.452Z,5
2022-11-12T06:58:45.449Z,4
2022-11-12T06:59:45.447Z,4
2022-11-12T07:00:45.446Z,4
2022-11-12T07:01:45.523Z,5
2022-11-12T07:02:45.450Z,5
2022-11-12T07:03:45.454Z,4
2022-11-12T07:04:45.490Z,5
2022-11-12T07:05:45.447Z,3
2022-11-12T07:06:45.509Z,4
2022-11-12T07:07:45.454Z,4
2022-11-12T07:08:45.445Z,4
2022-11-12T07:09:45.501Z,5
2022-11-12T07:10:45.456Z,5
2022-11-12T07:11:45.448Z,5
2022-11-12T07:12:50.429Z,4
2022-11-12T07:13:45.447Z,5
2022-11-12T07:14:45.452Z,5
2022-11-12T07:15:45.447Z,4
2022-11-12T07:16:45.448Z,4
2022-11-12T07:17:45.453Z,5
2022-11-12T07:18:45.452Z,6
2022-11-12T07:19:45.441Z,5
2022-11-12T07:20:45.570Z,4
2022-11-12T07:21:45.444Z,5
2022-11-12T07:22:45.445Z,5
2022-11-12T07:23:45.442Z,4
2022-11-12T07:24:45.441Z,6
2022-11-12T07:25:45.453Z,5
2022-11-12T07:26:47.673Z,5
2022-11-12T07:27:45.450Z,4
2022-11-12T07:28:45.453Z,4
2022-11-12T07:29:48.508Z,5
2022-11-12T07:30:45.442Z,6
2022-11-12T07:31:45.450Z,4
2022-11-12T07:32:49.575Z,4
2022-11-12T07:33:45.452Z,4
2022-11-12T07:34:45.455Z,4
2022-11-12T07:35:45.444Z,4
2022-11-12T07:36:45.443Z,4
2022-11-12T07:37:45.452Z,6
2022-11-12T07:38:45.443Z,4
2022-11-12T07:39:45.444Z,5
2022-11-12T07:40:45.443Z,5
2022-11-12T07:41:45.523Z,5
2022-11-12T07:42:45.453Z,5
2022-11-12T07:43:45.440Z,5
2022-11-12T07:44:45.440Z,6
2022-11-12T07:45:45.439Z,7
2022-11-12T07:46:45.454Z,5
2022-11-12T07:47:45.441Z,5
2022-11-12T07:48:45.449Z,5
2022-11-12T07:49:45.447Z,4
2022-11-12T07:50:45.651Z,5
2022-11-12T07:51:45.565Z,5
2022-11-12T07:52:45.455Z,5
2022-11-12T07:53:45.452Z,4
2022-11-12T07:54:45.446Z,5
2022-11-12T07:55:45.448Z,4
2022-11-12T07:56:45.441Z,4
2022-11-12T07:57:45.472Z,4
2022-11-12T07:58:45.449Z,4
2022-11-12T07:59:46.496Z,4
2022-11-12T08:00:45.447Z,5
2022-11-12T08:01:45.611Z,4
2022-11-12T08:02:45.463Z,5
2022-11-12T08:03:45.447Z,4
2022-11-12T08:04:45.450Z,4
2022-11-12T08:05:45.448Z,3
2022-11-12T08:07:45.595Z,4
2022-11-12T08:08:45.450Z,4
2022-11-12T08:09:45.443Z,5
2022-11-12T08:11:45.453Z,4
2022-11-12T08:12:45.449Z,4
2022-11-12T08:13:45.452Z,3
2022-11-12T08:14:45.456Z,4
2022-11-12T08:15:50.991Z,5
2022-11-12T08:16:45.465Z,3
2022-11-12T08:17:45.452Z,4
2022-11-12T08:18:45.451Z,3
2022-11-12T08:19:45.450Z,4
2022-11-12T08:20:45.445Z,4
2022-11-12T08:21:45.451Z,2
2022-11-12T08:22:49.280Z,4
2022-11-12T08:23:45.446Z,4
2022-11-12T08:24:45.441Z,3
2022-11-12T08:25:45.447Z,3
2022-11-12T08:26:45.448Z,3
2022-11-12T08:27:45.833Z,3
2022-11-12T08:28:45.448Z,3
2022-11-12T08:29:45.453Z,3
2022-11-12T08:30:45.452Z,3
2022-11-12T08:32:45.451Z,3
2022-11-12T08:33:45.450Z,3
2022-11-12T08:34:45.455Z,3
2022-11-12T08:35:45.444Z,3
2022-11-12T08:36:45.450Z,3
2022-11-12T08:37:45.449Z,3
2022-11-12T08:38:45.445Z,3
2022-11-12T08:39:45.449Z,3
2022-11-12T08:40:45.457Z,3
2022-11-12T08:42:45.461Z,4
2022-11-12T08:43:45.449Z,3
2022-11-12T08:44:45.445Z,3
2022-11-12T08:46:45.449Z,2
2022-11-12T08:47:45.452Z,3
2022-11-12T08:48:45.453Z,3
2022-11-12T08:49:48.176Z,4
2022-11-12T08:50:45.452Z,4
2022-11-12T08:51:45.456Z,3
2022-11-12T08:53:45.581Z,3
2022-11-12T08:54:45.452Z,2
2022-11-12T08:55:45.454Z,3
2022-11-12T08:57:45.450Z,3
2022-11-12T08:58:45.448Z,3
2022-11-12T08:59:45.455Z,2
2022-11-12T09:00:45.448Z,3
2022-11-12T09:01:45.506Z,2
2022-11-12T09:02:45.457Z,2
2022-11-12T09:03:45.450Z,2
2022-11-12T09:04:45.451Z,2
2022-11-12T09:05:45.476Z,2
2022-11-12T09:06:48.721Z,1
2022-11-12T09:07:50.439Z,2
2022-11-12T09:08:45.460Z,1
2022-11-12T09:09:45.454Z,1
2022-11-12T09:10:45.456Z,1
2022-11-12T09:11:45.461Z,1
2022-11-12T09:12:45.506Z,2
2022-11-12T09:13:45.546Z,2
2022-11-12T09:14:45.457Z,2
2022-11-12T09:15:45.496Z,1
2022-11-12T09:16:45.460Z,2
2022-11-12T09:17:45.458Z,1
2022-11-12T09:18:45.457Z,1
2022-11-12T09:19:45.458Z,2
2022-11-12T09:21:45.453Z,2
2022-11-12T09:22:45.462Z,2
2022-11-12T09:23:45.484Z,2
2022-11-12T09:25:45.478Z,2
2022-11-12T09:26:45.460Z,2
2022-11-12T09:28:45.466Z,1
2022-11-12T09:29:45.461Z,1
2022-11-12T09:30:45.464Z,2
2022-11-12T09:31:45.462Z,2
2022-11-12T09:32:45.465Z,2
2022-11-12T09:33:45.468Z,2
2022-11-12T09:34:45.455Z,1
2022-11-12T09:35:45.515Z,1
2022-11-12T09:36:45.468Z,1
2022-11-12T09:37:45.469Z,1
2022-11-12T09:38:45.458Z,2
2022-11-12T09:39:45.470Z,1
2022-11-12T09:40:45.460Z,2
2022-11-12T09:41:45.491Z,2
2022-11-12T09:42:45.462Z,1
2022-11-12T09:43:45.465Z,1
2022-11-12T09:44:45.462Z,2
2022-11-12T09:46:45.462Z,2
2022-11-12T09:47:45.684Z,2
2022-11-12T09:48:45.461Z,1
2022-11-12T09:49:45.466Z,1
2022-11-12T09:50:45.472Z,3
2022-11-12T09:51:45.465Z,2
2022-11-12T09:52:45.467Z,2
2022-11-12T09:53:45.480Z,2
2022-11-12T09:54:45.461Z,2
2022-11-12T09:55:45.581Z,1
2022-11-12T09:56:45.468Z,1
2022-11-12T09:57:45.465Z,2
2022-11-12T09:58:45.467Z,2
2022-11-12T09:59:45.463Z,2
2022-11-12T10:00:45.480Z,1
2022-11-12T10:01:45.563Z,2
2022-11-12T10:02:45.479Z,1
2022-11-12T10:03:45.472Z,2
2022-11-12T10:04:45.482Z,2
2022-11-12T10:05:45.472Z,2
2022-11-12T10:07:45.509Z,1
2022-11-12T10:08:45.473Z,2
2022-11-12T10:09:45.475Z,2
2022-11-12T10:10:45.475Z,2
2022-11-12T10:11:45.474Z,1
2022-11-12T10:12:45.477Z,1
2022-11-12T10:13:45.471Z,2
2022-11-12T10:14:45.472Z,1
2022-11-12T10:15:45.472Z,2
2022-11-12T10:16:45.472Z,1
2022-11-12T10:18:45.473Z,1
2022-11-12T10:19:45.475Z,1
2022-11-12T10:20:45.477Z,2
2022-11-12T10:21:45.477Z,1
2022-11-12T10:22:45.480Z,1
2022-11-12T10:23:45.468Z,1
2022-11-12T10:25:45.480Z,2
2022-11-12T10:26:45.593Z,1
2022-11-12T10:27:45.483Z,2
2022-11-12T10:28:45.481Z,1
2022-11-12T10:29:45.537Z,1
2022-11-12T10:30:45.477Z,1
2022-11-12T10:31:45.480Z,1
2022-11-12T10:32:45.473Z,1
2022-11-12T10:33:45.480Z,1
2022-11-12T10:34:45.552Z,1
2022-11-12T10:35:45.479Z,1
2022-11-12T10:36:45.485Z,1
2022-11-12T10:37:45.476Z,1
2022-11-12T10:38:45.477Z,2
2022-11-12T10:39:45.476Z,1
2022-11-12T10:40:45.476Z,1
2022-11-12T10:41:45.478Z,1
2022-11-12T10:42:45.471Z,1
2022-11-12T10:43:45.474Z,1
2022-11-12T10:44:45.477Z,2
2022-11-12T10:46:45.481Z,1
2022-11-12T10:47:45.482Z,1
2022-11-12T10:48:45.475Z,1
2022-11-12T10:49:45.483Z,1
2022-11-12T10:50:45.476Z,1
2022-11-12T10:51:45.485Z,1
2022-11-12T10:52:45.478Z,1
2022-11-12T10:53:45.478Z,1
2022-11-12T10:54:48.570Z,1
2022-11-12T10:55:45.489Z,0
2022-11-12T10:56:45.487Z,1
2022-11-12T10:57:45.606Z,1
2022-11-12T10:58:45.483Z,1
2022-11-12T10:59:45.482Z,1
2022-11-12T11:00:45.488Z,1
2022-11-12T11:01:46.181Z,1
2022-11-12T11:02:45.491Z,1
2022-11-12T11:03:45.485Z,0
2022-11-12T11:04:45.486Z,1
2022-11-12T11:05:45.497Z,0
2022-11-12T11:07:45.492Z,2
2022-11-12T11:08:45.492Z,0
2022-11-12T11:09:45.490Z,1
2022-11-12T11:10:45.497Z,1
2022-11-12T11:11:45.536Z,1
2022-11-12T11:12:45.488Z,1
2022-11-12T11:13:45.502Z,1
2022-11-12T11:14:45.502Z,0
2022-11-12T11:15:45.494Z,1
2022-11-12T11:16:45.528Z,1
2022-11-12T11:17:45.485Z,1
2022-11-12T11:18:45.497Z,1
2022-11-12T11:19:45.497Z,0
2022-11-12T11:20:45.489Z,1
2022-11-12T11:21:45.541Z,1
2022-11-12T11:22:45.492Z,1
2022-11-12T11:23:45.492Z,1
2022-11-12T11:24:45.485Z,1
2022-11-12T11:25:45.497Z,2
2022-11-12T11:26:45.487Z,1
2022-11-12T11:28:45.613Z,1
2022-11-12T11:29:45.490Z,2
2022-11-12T11:30:45.491Z,1
2022-11-12T11:31:45.511Z,1
2022-11-12T11:32:45.500Z,1
2022-11-12T11:33:45.496Z,1
2022-11-12T11:34:45.502Z,1
2022-11-12T11:35:45.492Z,2
2022-11-12T11:36:45.505Z,1
2022-11-12T11:37:45.494Z,1
2022-11-12T11:38:45.501Z,1
2022-11-12T11:39:45.497Z,1
2022-11-12T11:40:45.510Z,1
2022-11-12T11:41:45.493Z,1
2022-11-12T11:42:45.498Z,1
2022-11-12T11:43:45.516Z,1
2022-11-12T11:44:45.505Z,1
2022-11-12T11:46:45.497Z,1
2022-11-12T11:48:00.642Z,1
2022-11-12T11:48:45.499Z,1
2022-11-12T11:49:45.509Z,1
2022-11-12T11:50:45.508Z,1
2022-11-12T11:51:45.504Z,1
2022-11-12T11:52:45.494Z,1
2022-11-12T11:53:45.500Z,1
2022-11-12T11:54:45.505Z,0
2022-11-12T11:55:45.496Z,1
2022-11-12T11:56:45.497Z,1
2022-11-12T11:57:45.498Z,0
2022-11-12T11:58:45.504Z,1
2022-11-12T11:59:45.633Z,2
2022-11-12T12:00:45.505Z,1
2022-11-12T12:01:45.505Z,1
2022-11-12T12:02:45.506Z,1
2022-11-12T12:03:45.523Z,1
2022-11-12T12:04:45.504Z,1
2022-11-12T12:05:45.504Z,1
2022-11-12T12:07:45.505Z,1
2022-11-12T12:08:45.501Z,1
2022-11-12T12:09:45.506Z,1
2022-11-12T12:11:06.769Z,1
2022-11-12T12:11:45.878Z,1
2022-11-12T12:12:45.504Z,1
2022-11-12T12:13:45.925Z,1
2022-11-12T12:14:45.507Z,1
2022-11-12T12:15:45.522Z,1
2022-11-12T12:16:45.502Z,0
2022-11-12T12:17:45.508Z,0
2022-11-12T12:18:45.502Z,0
2022-11-12T12:19:45.511Z,0
2022-11-12T12:20:45.512Z,1
2022-11-12T12:21:45.517Z,0
2022-11-12T12:22:45.504Z,1
2022-11-12T12:23:45.523Z,1
2022-11-12T12:24:45.507Z,1
2022-11-12T12:25:45.513Z,1
2022-11-12T12:26:45.509Z,1
2022-11-12T12:28:45.510Z,1
2022-11-12T12:29:45.510Z,1
2022-11-12T12:30:45.627Z,1
2022-11-12T12:31:45.508Z,1
2022-11-12T12:32:45.518Z,1
2022-11-12T12:33:45.523Z,0
2022-11-12T12:34:45.511Z,1
2022-11-12T12:35:45.512Z,1
2022-11-12T12:36:45.516Z,1
2022-11-12T12:37:45.524Z,1
2022-11-12T12:38:45.527Z,2
2022-11-12T12:39:48.062Z,1
2022-11-12T12:40:45.514Z,1
2022-11-12T12:41:45.518Z,0
2022-11-12T12:42:45.535Z,0
2022-11-12T12:43:45.511Z,1
2022-11-12T12:44:45.521Z,0
2022-11-12T12:46:45.525Z,0
2022-11-12T12:47:45.512Z,0
2022-11-12T12:48:45.528Z,0
2022-11-12T12:49:45.518Z,0
2022-11-12T12:50:45.512Z,0
2022-11-12T12:51:45.514Z,1
2022-11-12T12:52:45.517Z,1
2022-11-12T12:53:45.528Z,1
2022-11-12T12:54:45.518Z,1
2022-11-12T12:55:45.593Z,1
2022-11-12T12:56:45.515Z,0
2022-11-12T12:57:45.526Z,0
2022-11-12T12:58:45.519Z,1
2022-11-12T12:59:45.528Z,1
2022-11-12T13:00:45.659Z,1
2022-11-12T13:01:45.641Z,1
2022-11-12T13:03:45.522Z,1
2022-11-12T13:04:45.525Z,1
2022-11-12T13:05:45.526Z,1
2022-11-12T13:07:45.524Z,1
2022-11-12T13:08:45.523Z,1
2022-11-12T13:09:45.525Z,1
2022-11-12T13:10:45.524Z,1
2022-11-12T13:12:45.533Z,1
2022-11-12T13:13:45.532Z,1
2022-11-12T13:14:45.530Z,1
2022-11-12T13:15:45.527Z,0
2022-11-12T13:16:45.529Z,1
2022-11-12T13:17:45.532Z,1
2022-11-12T13:18:45.524Z,0
2022-11-12T13:19:45.532Z,1
2022-11-12T13:20:45.526Z,1
2022-11-12T13:21:45.526Z,1
2022-11-12T13:22:45.526Z,1
2022-11-12T13:23:45.534Z,0
2022-11-12T13:24:45.525Z,1
2022-11-12T13:25:45.543Z,1
2022-11-12T13:26:45.529Z,1
2022-11-12T13:28:45.532Z,1
2022-11-12T13:29:45.528Z,0
2022-11-12T13:30:45.530Z,1
2022-11-12T13:31:45.531Z,1
2022-11-12T13:32:45.646Z,1
2022-11-12T13:33:45.529Z,0
2022-11-12T13:34:45.538Z,1
2022-11-12T13:35:45.548Z,1
2022-11-12T13:36:45.538Z,1
2022-11-12T13:37:45.530Z,0
2022-11-12T13:38:45.542Z,1
2022-11-12T13:39:45.535Z,1
2022-11-12T13:40:45.541Z,1
2022-11-12T13:41:45.538Z,1
2022-11-12T13:42:45.540Z,0
2022-11-12T13:43:45.628Z,0
2022-11-12T13:44:45.550Z,1
2022-11-12T13:45:45.537Z,1
2022-11-12T13:46:45.532Z,1
2022-11-12T13:47:45.540Z,1
2022-11-12T13:49:45.548Z,1
2022-11-12T13:50:45.541Z,1
2022-11-12T13:51:45.545Z,1
2022-11-12T13:52:45.539Z,1
2022-11-12T13:53:45.541Z,1
2022-11-12T13:54:45.543Z,1
2022-11-12T13:55:45.543Z,1
2022-11-12T13:56:45.541Z,0
2022-11-12T13:57:45.537Z,1
2022-11-12T13:58:45.540Z,3
2022-11-12T13:59:45.542Z,2
2022-11-12T14:00:45.635Z,3
2022-11-12T14:01:45.540Z,2
2022-11-12T14:02:45.564Z,2
2022-11-12T14:03:45.664Z,1
2022-11-12T14:04:45.546Z,2
2022-11-12T14:05:45.538Z,2
2022-11-12T14:07:45.537Z,2
2022-11-12T14:08:45.550Z,1
2022-11-12T14:09:45.538Z,2
2022-11-12T14:10:46.390Z,1
2022-11-12T14:12:45.539Z,2
2022-11-12T14:13:45.553Z,1
2022-11-12T14:14:45.543Z,1
2022-11-12T14:15:45.550Z,1
2022-11-12T14:16:45.550Z,1
2022-11-12T14:17:45.553Z,1
2022-11-12T14:18:45.559Z,0
2022-11-12T14:19:45.560Z,1
2022-11-12T14:20:45.549Z,1
2022-11-12T14:21:45.614Z,1
2022-11-12T14:22:45.587Z,1
2022-11-12T14:23:45.567Z,1
2022-11-12T14:24:45.551Z,1
2022-11-12T14:25:45.553Z,1
2022-11-12T14:26:45.547Z,1
2022-11-12T14:28:45.557Z,1
2022-11-12T14:29:45.560Z,1
2022-11-12T14:30:45.555Z,1
2022-11-12T14:31:45.563Z,1
2022-11-12T14:32:45.551Z,0
2022-11-12T14:33:45.556Z,1
2022-11-12T14:34:45.667Z,0
2022-11-12T14:35:45.552Z,1
2022-11-12T14:36:45.556Z,1
2022-11-12T14:37:45.600Z,1
2022-11-12T14:38:45.573Z,2
2022-11-12T14:39:45.554Z,1
2022-11-12T14:40:45.564Z,0
2022-11-12T14:41:45.557Z,0
2022-11-12T14:42:45.601Z,1
2022-11-12T14:43:45.561Z,1
2022-11-12T14:46:45.553Z,1
2022-11-12T14:47:45.611Z,1
2022-11-12T14:48:45.557Z,1
2022-11-12T14:49:45.563Z,1
2022-11-12T14:50:50.637Z,1
2022-11-12T14:51:45.556Z,0
2022-11-12T14:52:45.638Z,1
2022-11-12T14:53:45.561Z,0
2022-11-12T14:54:45.563Z,0
2022-11-12T14:55:45.558Z,0
2022-11-12T14:56:45.569Z,0
2022-11-12T14:57:45.567Z,1
2022-11-12T14:58:45.563Z,1
2022-11-12T14:59:45.559Z,2
2022-11-12T15:00:45.610Z,1
2022-11-12T15:02:21.683Z,1
2022-11-12T15:02:55.738Z,1
2022-11-12T15:03:45.567Z,1
2022-11-12T15:04:45.558Z,1
2022-11-12T15:07:45.569Z,0
2022-11-12T15:08:45.572Z,0
2022-11-12T15:09:45.573Z,1
2022-11-12T15:10:45.570Z,0
2022-11-12T15:11:45.563Z,1
2022-11-12T15:12:45.568Z,1
2022-11-12T15:13:45.569Z,1
2022-11-12T15:14:45.575Z,1
2022-11-12T15:15:45.571Z,1
2022-11-12T15:16:45.581Z,1
2022-11-12T15:17:45.572Z,1
2022-11-12T15:18:45.570Z,1
2022-11-12T15:19:45.568Z,1
2022-11-12T15:20:45.572Z,1
2022-11-12T15:21:45.571Z,1
2022-11-12T15:22:45.568Z,1
2022-11-12T15:23:45.572Z,2
2022-11-12T15:24:45.633Z,1
2022-11-12T15:25:45.574Z,1
2022-11-12T15:28:45.567Z,1
2022-11-12T15:29:45.626Z,1
2022-11-12T15:30:45.568Z,1
2022-11-12T15:31:45.564Z,1
2022-11-12T15:32:45.583Z,1
2022-11-12T15:33:45.574Z,1
2022-11-12T15:34:45.574Z,1
2022-11-12T15:35:45.579Z,1
2022-11-12T15:36:45.687Z,1
2022-11-12T15:37:45.649Z,1
2022-11-12T15:38:45.589Z,1
2022-11-12T15:39:45.577Z,1
2022-11-12T15:40:45.583Z,1
2022-11-12T15:41:45.571Z,2
2022-11-12T15:42:45.573Z,1
2022-11-12T15:43:45.584Z,1
2022-11-12T15:44:45.604Z,2
2022-11-12T15:45:45.566Z,2
2022-11-12T15:46:45.572Z,1
2022-11-12T15:47:45.585Z,1
2022-11-12T15:48:45.582Z,1
2022-11-12T15:49:45.575Z,1
2022-11-12T15:50:45.577Z,1
2022-11-12T15:51:45.585Z,1
2022-11-12T15:52:45.580Z,1
2022-11-12T15:53:45.584Z,2
2022-11-12T15:54:45.580Z,1
2022-11-12T15:55:45.585Z,1
2022-11-12T15:56:45.574Z,1
2022-11-12T15:57:45.586Z,2
2022-11-12T15:58:45.582Z,1
2022-11-12T15:59:45.586Z,2
2022-11-12T16:00:45.601Z,1
2022-11-12T16:01:45.575Z,1
2022-11-12T16:02:45.579Z,2